createdAt,value
2023-05-19T00:01:00.703Z,100836.56
2023-05-19T00:03:29.440Z,100831.88
2023-05-19T00:05:59.250Z,100829.59
2023-05-19T00:08:31.645Z,100838.03
2023-05-19T00:11:00.247Z,100822.91
2023-05-19T00:13:28.678Z,100829.63
2023-05-19T00:15:57.156Z,100825.06
2023-05-19T00:18:26.832Z,100819.87
2023-05-19T00:20:54.830Z,100825.28
2023-05-19T00:23:22.936Z,100818.34
2023-05-19T00:25:51.647Z,100821.34
2023-05-19T00:28:19.682Z,100827.22
2023-05-19T00:30:48.300Z,100837.06
2023-05-19T00:33:16.564Z,100841.28
2023-05-19T00:35:44.630Z,100839.00
2023-05-19T00:38:12.681Z,100844.28
2023-05-19T00:40:41.191Z,100838.00
2023-05-19T00:43:09.264Z,100838.62
2023-05-19T00:45:37.188Z,100838.38
2023-05-19T00:48:06.269Z,100844.03
2023-05-19T00:50:34.616Z,100850.47
2023-05-19T00:53:02.996Z,100838.59
2023-05-19T00:55:34.043Z,100842.56
2023-05-19T00:58:02.214Z,100845.88
2023-05-19T01:00:31.405Z,100841.56
2023-05-19T01:03:00.221Z,100846.69
2023-05-19T01:05:30.855Z,100846.84
2023-05-19T01:07:59.564Z,100836.59
2023-05-19T01:10:27.600Z,100850.22
2023-05-19T01:12:55.663Z,100842.03
2023-05-19T01:15:27.548Z,100847.78
2023-05-19T01:18:08.708Z,100843.72
2023-05-19T01:20:43.146Z,100849.19
2023-05-19T01:23:57.937Z,100848.03
2023-05-19T01:27:07.649Z,100848.41
2023-05-19T01:30:12.181Z,100851.94
2023-05-19T01:32:42.704Z,100851.31
2023-05-19T01:35:13.226Z,100854.56
2023-05-19T01:37:43.024Z,100851.22
2023-05-19T01:40:11.760Z,100848.47
2023-05-19T01:42:41.848Z,100849.09
2023-05-19T01:45:10.920Z,100852.66
2023-05-19T01:47:43.010Z,100851.84
2023-05-19T01:50:12.063Z,100850.50
2023-05-19T01:52:40.144Z,100851.00
2023-05-19T01:55:09.824Z,100848.94
2023-05-19T01:57:54.846Z,100854.59
2023-05-19T02:00:52.517Z,100859.16
2023-05-19T02:03:57.926Z,100853.53
2023-05-19T02:07:03.467Z,100861.16
2023-05-19T02:09:45.432Z,100859.94
2023-05-19T02:12:26.936Z,100860.34
2023-05-19T02:15:18.334Z,100866.47
2023-05-19T02:17:48.801Z,100868.63
2023-05-19T02:20:37.209Z,100859.38
2023-05-19T02:23:07.814Z,100867.78
2023-05-19T02:25:36.080Z,100869.59
2023-05-19T02:28:04.268Z,100873.94
2023-05-19T02:30:33.047Z,100861.16
2023-05-19T02:33:02.532Z,100863.69
2023-05-19T02:35:30.598Z,100856.97
2023-05-19T02:37:59.250Z,100862.00
2023-05-19T02:40:27.353Z,100857.03
2023-05-19T02:42:56.457Z,100844.31
2023-05-19T02:45:24.905Z,100865.97
2023-05-19T02:47:52.960Z,100861.84
2023-05-19T02:50:22.996Z,100862.56
2023-05-19T02:52:53.055Z,100864.84
2023-05-19T02:55:21.342Z,100871.56
2023-05-19T02:57:49.433Z,100865.31
2023-05-19T03:00:17.927Z,100876.56
2023-05-19T03:02:46.789Z,100878.94
2023-05-19T03:05:14.900Z,100872.22
2023-05-19T03:07:43.110Z,100898.19
2023-05-19T03:10:11.327Z,100878.09
2023-05-19T03:12:39.498Z,100898.19
2023-05-19T03:15:08.942Z,100892.69
2023-05-19T03:17:37.266Z,100896.53
2023-05-19T03:20:06.099Z,100898.69
2023-05-19T03:22:34.668Z,100900.34
2023-05-19T03:25:03.861Z,100907.56
2023-05-19T03:27:34.342Z,100897.69
2023-05-19T03:30:04.980Z,100903.72
2023-05-19T03:32:38.492Z,100904.31
2023-05-19T03:35:07.289Z,100902.75
2023-05-19T03:37:35.489Z,100907.94
2023-05-19T03:40:05.757Z,100901.78
2023-05-19T03:42:37.030Z,100906.25
2023-05-19T03:45:06.250Z,100911.06
2023-05-19T03:47:34.853Z,100911.16
2023-05-19T03:50:04.007Z,100899.88
2023-05-19T03:52:33.983Z,100917.19
2023-05-19T03:55:04.906Z,100911.28
2023-05-19T03:57:33.984Z,100911.75
2023-05-19T04:00:02.491Z,100916.16
2023-05-19T04:02:41.479Z,100917.28
2023-05-19T04:05:11.243Z,100920.97
2023-05-19T04:07:39.223Z,100924.78
2023-05-19T04:10:08.134Z,100927.03
2023-05-19T04:12:36.559Z,100930.09
2023-05-19T04:15:06.345Z,100928.16
2023-05-19T04:17:34.661Z,100928.22
2023-05-19T04:20:03.166Z,100930.88
2023-05-19T04:22:32.538Z,100938.31
2023-05-19T04:25:00.896Z,100941.50
2023-05-19T04:27:32.466Z,100940.19
2023-05-19T04:30:00.409Z,100937.44
2023-05-19T04:32:29.775Z,100953.25
2023-05-19T04:34:59.227Z,100951.28
2023-05-19T04:37:28.360Z,100957.97
2023-05-19T04:39:56.364Z,100954.88
2023-05-19T04:42:26.469Z,100961.78
2023-05-19T04:44:55.039Z,100954.59
2023-05-19T04:47:29.099Z,100963.22
2023-05-19T04:49:57.785Z,100956.22
2023-05-19T04:52:25.785Z,100962.87
2023-05-19T04:54:54.634Z,100969.34
2023-05-19T04:57:24.386Z,100959.91
2023-05-19T04:59:52.572Z,100965.38
2023-05-19T05:02:21.693Z,100975.44
2023-05-19T05:04:50.286Z,100976.28
2023-05-19T05:07:18.346Z,100973.56
2023-05-19T05:09:46.360Z,100977.22
2023-05-19T05:12:15.918Z,100977.06
2023-05-19T05:14:44.143Z,100981.31
2023-05-19T05:17:13.492Z,100984.38
2023-05-19T05:19:43.009Z,100981.31
2023-05-19T05:22:11.663Z,100971.03
2023-05-19T05:24:40.372Z,100992.22
2023-05-19T05:27:10.598Z,100990.38
2023-05-19T05:29:38.761Z,100995.25
2023-05-19T05:32:08.362Z,100999.28
2023-05-19T05:34:40.781Z,100999.28
2023-05-19T05:37:08.871Z,101006.25
2023-05-19T05:39:37.910Z,101004.75
2023-05-19T05:42:06.370Z,101002.44
2023-05-19T05:44:36.056Z,101009.34
2023-05-19T05:47:05.296Z,100990.31
2023-05-19T05:49:38.477Z,101015.75
2023-05-19T05:52:09.536Z,101015.44
2023-05-19T05:54:38.770Z,101014.28
2023-05-19T05:57:08.650Z,101031.06
2023-05-19T05:59:36.762Z,101024.75
2023-05-19T06:02:05.393Z,101030.53
2023-05-19T06:04:34.337Z,101029.34
2023-05-19T06:07:02.353Z,101043.41
2023-05-19T06:09:31.566Z,101037.91
2023-05-19T06:12:00.673Z,101040.94
2023-05-19T06:14:31.377Z,101040.84
2023-05-19T06:17:05.578Z,101041.06
2023-05-19T06:19:33.572Z,101057.31
2023-05-19T06:22:01.502Z,101046.22
2023-05-19T06:24:30.951Z,101047.28
2023-05-19T06:26:59.078Z,101047.03
2023-05-19T06:29:27.179Z,101047.19
2023-05-19T06:31:56.882Z,101054.09
2023-05-19T06:34:26.200Z,101053.16
2023-05-19T06:36:54.689Z,101056.47
2023-05-19T06:39:23.519Z,101054.56
2023-05-19T06:41:51.611Z,101063.22
2023-05-19T06:44:26.634Z,101062.78
2023-05-19T06:46:54.799Z,101071.03
2023-05-19T06:49:22.824Z,101064.91
2023-05-19T06:51:51.496Z,101072.19
2023-05-19T06:54:19.545Z,101065.34
2023-05-19T06:56:47.417Z,101068.66
2023-05-19T06:59:16.620Z,101066.69
2023-05-19T07:01:45.499Z,101060.66
2023-05-19T07:04:13.728Z,101080.50
2023-05-19T07:06:42.180Z,101065.94
2023-05-19T07:09:10.398Z,101086.94
2023-05-19T07:11:40.088Z,101078.84
2023-05-19T07:14:09.498Z,101082.53
2023-05-19T07:16:38.540Z,101083.38
2023-05-19T07:19:06.786Z,101084.75
2023-05-19T07:21:35.198Z,101083.47
2023-05-19T07:24:03.185Z,101090.47
2023-05-19T07:26:31.364Z,101089.72
2023-05-19T07:28:59.645Z,101087.28
2023-05-19T07:31:27.897Z,101087.25
2023-05-19T07:33:55.949Z,101093.63
2023-05-19T07:36:24.462Z,101092.38
2023-05-19T07:38:52.620Z,101093.88
2023-05-19T07:41:21.969Z,101094.63
2023-05-19T07:44:08.040Z,101094.81
2023-05-19T07:46:48.657Z,101086.25
2023-05-19T07:49:17.120Z,101097.00
2023-05-19T07:51:45.455Z,101087.28
2023-05-19T07:54:13.551Z,101091.44
2023-05-19T07:56:42.014Z,101083.22
2023-05-19T07:59:10.229Z,101085.25
2023-05-19T08:01:38.394Z,101094.94
2023-05-19T08:04:07.608Z,101087.03
2023-05-19T08:06:36.469Z,101092.25
2023-05-19T08:09:05.698Z,101099.50
2023-05-19T08:11:34.178Z,101092.13
2023-05-19T08:14:02.266Z,101103.94
2023-05-19T08:16:30.526Z,101108.28
2023-05-19T08:19:01.302Z,101111.34
2023-05-19T08:21:29.437Z,101100.97
2023-05-19T08:23:57.917Z,101102.44
2023-05-19T08:26:26.696Z,101106.69
2023-05-19T08:28:55.021Z,101110.91
2023-05-19T08:31:23.167Z,101115.34
2023-05-19T08:33:51.708Z,101106.03
2023-05-19T08:36:20.170Z,101110.47
2023-05-19T08:38:48.214Z,101117.00
2023-05-19T08:41:16.922Z,101119.31
2023-05-19T08:43:45.802Z,101117.47
2023-05-19T08:46:16.944Z,101115.63
2023-05-19T08:48:50.131Z,101118.69
2023-05-19T08:51:36.352Z,101120.41
2023-05-19T08:54:18.466Z,101119.44
2023-05-19T08:56:47.083Z,101119.88
2023-05-19T08:59:16.470Z,101117.53
2023-05-19T09:01:46.861Z,101116.69
2023-05-19T09:04:17.497Z,101117.53
2023-05-19T09:06:45.772Z,101114.75
2023-05-19T09:09:14.121Z,101121.56
2023-05-19T09:11:47.537Z,101107.38
2023-05-19T09:14:15.433Z,101111.56
2023-05-19T09:16:46.024Z,101113.53
2023-05-19T09:19:17.719Z,101114.47
2023-05-19T09:21:46.755Z,101101.97
2023-05-19T09:24:14.726Z,101109.53
2023-05-19T09:26:43.558Z,101107.75
2023-05-19T09:29:16.950Z,101112.94
2023-05-19T09:31:54.874Z,101122.78
2023-05-19T09:34:25.339Z,101119.31
2023-05-19T09:36:54.467Z,101113.62
2023-05-19T09:39:26.297Z,101114.66
2023-05-19T09:41:56.525Z,101108.91
2023-05-19T09:44:29.961Z,101113.12
2023-05-19T09:46:59.104Z,101104.09
2023-05-19T09:49:33.125Z,101099.03
2023-05-19T09:52:04.519Z,101103.00
2023-05-19T09:54:34.879Z,101103.84
2023-05-19T09:57:07.767Z,101103.31
2023-05-19T09:59:39.340Z,101109.81
2023-05-19T10:02:16.161Z,101110.34
2023-05-19T10:04:46.365Z,101106.50
2023-05-19T10:07:16.309Z,101106.97
2023-05-19T10:09:45.635Z,101105.41
2023-05-19T10:12:14.047Z,101095.25
2023-05-19T10:14:42.487Z,101095.66
2023-05-19T10:17:13.018Z,101098.63
2023-05-19T10:19:41.818Z,101096.12
2023-05-19T10:22:10.247Z,101092.06
2023-05-19T10:24:38.398Z,101096.97
2023-05-19T10:27:14.841Z,101100.91
2023-05-19T10:29:49.124Z,101091.69
2023-05-19T10:32:27.316Z,101095.28
2023-05-19T10:35:16.710Z,101102.56
2023-05-19T10:37:46.963Z,101104.94
2023-05-19T10:40:41.526Z,101093.72
2023-05-19T10:43:12.443Z,101087.22
2023-05-19T10:45:53.458Z,101086.56
2023-05-19T10:48:23.416Z,101095.75
2023-05-19T10:50:56.950Z,101095.44
2023-05-19T10:53:31.522Z,101098.09
2023-05-19T10:56:07.304Z,101095.97
2023-05-19T10:58:44.402Z,101095.84
2023-05-19T11:01:17.761Z,101089.53
2023-05-19T11:03:52.453Z,101083.84
2023-05-19T11:06:22.235Z,101083.53
2023-05-19T11:09:10.895Z,101072.84
2023-05-19T11:11:54.350Z,101069.22
2023-05-19T11:14:23.667Z,101076.50
2023-05-19T11:16:54.218Z,101068.00
2023-05-19T11:19:35.947Z,101068.78
2023-05-19T11:22:13.702Z,101078.06
2023-05-19T11:24:50.517Z,101074.84
2023-05-19T11:27:33.019Z,101064.00
2023-05-19T11:30:02.524Z,101073.16
2023-05-19T11:32:39.499Z,101069.44
2023-05-19T11:35:08.518Z,101070.91
2023-05-19T11:37:37.409Z,101073.03
2023-05-19T11:40:07.636Z,101078.59
2023-05-19T11:42:37.423Z,101077.00
2023-05-19T11:45:07.141Z,101065.25
2023-05-19T11:47:50.964Z,101078.50
2023-05-19T11:50:25.427Z,101070.03
2023-05-19T11:52:56.196Z,101063.22
2023-05-19T11:55:25.643Z,101060.81
2023-05-19T11:58:04.970Z,101064.19
2023-05-19T12:00:42.224Z,101066.81
2023-05-19T12:03:11.071Z,101065.97
2023-05-19T12:05:44.356Z,101059.47
2023-05-19T12:08:13.512Z,101061.94
2023-05-19T12:10:42.089Z,101059.84
2023-05-19T12:13:10.700Z,101065.72
2023-05-19T12:15:39.770Z,101061.25
2023-05-19T12:18:08.169Z,101059.59
2023-05-19T12:20:36.530Z,101060.50
2023-05-19T12:23:05.591Z,101062.91
2023-05-19T12:25:34.530Z,101062.25
2023-05-19T12:28:06.916Z,101066.88
2023-05-19T12:30:35.899Z,101061.56
2023-05-19T12:33:04.395Z,101071.22
2023-05-19T12:35:34.416Z,101072.25
2023-05-19T12:38:07.479Z,101075.91
2023-05-19T12:40:36.905Z,101075.69
2023-05-19T12:43:05.880Z,101067.00
2023-05-19T12:45:43.176Z,101079.31
2023-05-19T12:48:18.462Z,101081.25
2023-05-19T12:50:46.814Z,101081.56
2023-05-19T12:53:16.029Z,101073.84
2023-05-19T12:55:45.370Z,101071.41
2023-05-19T12:58:13.953Z,101072.94
2023-05-19T13:00:45.446Z,101077.50
2023-05-19T13:03:22.421Z,101078.22
2023-05-19T13:05:51.758Z,101072.94
2023-05-19T13:08:21.963Z,101074.56
2023-05-19T13:11:03.486Z,101071.00
2023-05-19T13:16:25.456Z,101073.56
2023-05-19T13:18:53.954Z,101064.16
2023-05-19T13:21:22.306Z,101069.72
2023-05-19T13:23:50.739Z,101064.63
2023-05-19T13:26:20.373Z,101064.22
2023-05-19T13:28:48.712Z,101071.44
2023-05-19T13:31:19.017Z,101068.25
2023-05-19T13:33:47.230Z,101062.22
2023-05-19T13:36:15.316Z,101064.75
2023-05-19T13:38:45.279Z,101067.56
2023-05-19T13:41:16.068Z,101058.56
2023-05-19T13:43:44.709Z,101058.69
2023-05-19T13:46:12.872Z,101066.28
2023-05-19T13:48:40.964Z,101065.53
2023-05-19T13:51:09.547Z,101062.25
2023-05-19T13:53:37.706Z,101061.94
2023-05-19T13:56:05.919Z,101064.34
2023-05-19T13:58:34.690Z,101059.97
2023-05-19T14:01:02.957Z,101063.50
2023-05-19T14:03:31.779Z,101054.25
2023-05-19T14:06:00.065Z,101055.31
2023-05-19T14:08:28.675Z,101047.81
2023-05-19T14:10:57.526Z,101046.97
2023-05-19T14:13:33.055Z,101046.44
2023-05-19T14:16:03.943Z,101056.28
2023-05-19T14:18:32.982Z,101049.75
2023-05-19T14:21:16.753Z,101038.56
2023-05-19T14:23:45.366Z,101059.47
2023-05-19T14:26:13.633Z,101050.09
2023-05-19T14:28:42.679Z,101047.78
2023-05-19T14:31:15.559Z,101047.88
2023-05-19T14:33:51.712Z,101055.44
2023-05-19T14:36:39.082Z,101048.72
2023-05-19T14:39:07.556Z,101049.41
2023-05-19T14:41:41.445Z,101054.56
2023-05-19T14:44:10.073Z,101050.78
2023-05-19T14:46:38.439Z,101052.88
2023-05-19T14:49:07.008Z,101051.88
2023-05-19T14:51:35.628Z,101047.97
2023-05-19T14:54:15.536Z,101061.78
2023-05-19T14:56:44.010Z,101065.94
2023-05-19T14:59:15.671Z,101071.81
2023-05-19T15:01:44.386Z,101067.28
2023-05-19T15:04:12.538Z,101065.81
2023-05-19T15:07:05.913Z,101055.25
2023-05-19T15:09:38.302Z,101058.59
2023-05-19T15:12:06.672Z,101065.31
2023-05-19T15:14:34.852Z,101063.38
2023-05-19T15:17:03.490Z,101065.56
2023-05-19T15:19:43.898Z,101064.44
2023-05-19T15:22:12.428Z,101074.81
2023-05-19T15:24:41.681Z,101072.69
2023-05-19T15:27:10.092Z,101077.66
2023-05-19T15:29:38.647Z,101075.47
2023-05-19T15:32:07.408Z,101076.59
2023-05-19T15:34:35.976Z,101071.47
2023-05-19T15:37:04.734Z,101064.16
2023-05-19T15:39:34.357Z,101069.75
2023-05-19T15:42:02.799Z,101071.84
2023-05-19T15:44:31.384Z,101071.75
2023-05-19T15:46:59.868Z,101079.50
2023-05-19T15:49:40.161Z,101084.19
2023-05-19T15:52:08.868Z,101078.25
2023-05-19T15:54:37.183Z,101073.09
2023-05-19T15:57:05.629Z,101074.09
2023-05-19T15:59:34.262Z,101076.66
2023-05-19T16:02:08.039Z,101088.19
2023-05-19T16:04:41.131Z,101083.41
2023-05-19T16:07:17.671Z,101085.88
2023-05-19T16:09:46.279Z,101086.16
2023-05-19T16:12:14.485Z,101084.56
2023-05-19T16:14:42.854Z,101085.97
2023-05-19T16:17:12.272Z,101083.25
2023-05-19T16:19:52.485Z,101089.38
2023-05-19T16:22:25.048Z,101093.75
2023-05-19T16:24:53.356Z,101094.81
2023-05-19T16:27:21.954Z,101097.69
2023-05-19T16:29:50.265Z,101097.41
2023-05-19T16:32:18.293Z,101103.69
2023-05-19T16:34:46.552Z,101106.94
2023-05-19T16:37:14.712Z,101095.69
2023-05-19T16:39:44.247Z,101107.19
2023-05-19T16:42:12.797Z,101113.25
2023-05-19T16:44:40.877Z,101114.81
2023-05-19T16:47:11.833Z,101110.19
2023-05-19T16:49:52.572Z,101112.34
2023-05-19T16:52:21.147Z,101111.03
2023-05-19T16:54:49.264Z,101120.78
2023-05-19T16:57:18.008Z,101118.28
2023-05-19T16:59:46.229Z,101125.50
2023-05-19T17:02:15.164Z,101120.03
2023-05-19T17:07:42.668Z,101120.75
2023-05-19T17:10:11.465Z,101116.09
2023-05-19T17:12:41.998Z,101118.94
2023-05-19T17:15:11.447Z,101116.28
2023-05-19T17:17:39.603Z,101115.78
2023-05-19T17:20:08.622Z,101122.38
2023-05-19T17:22:37.517Z,101118.75
2023-05-19T17:25:18.548Z,101120.81
2023-05-19T17:27:48.825Z,101130.00
2023-05-19T17:30:17.196Z,101129.63
2023-05-19T17:32:45.611Z,101124.53
2023-05-19T17:35:14.407Z,101110.00
2023-05-19T17:37:54.583Z,101135.37
2023-05-19T17:40:23.542Z,101126.50
2023-05-19T17:42:51.920Z,101129.63
2023-05-19T17:45:20.139Z,101129.22
2023-05-19T17:47:48.696Z,101123.09
2023-05-19T17:50:41.644Z,101122.56
2023-05-19T17:53:12.431Z,101126.72
2023-05-19T17:55:53.103Z,101126.28
2023-05-19T17:58:21.906Z,101123.97
2023-05-19T18:00:50.362Z,101133.06
2023-05-19T18:03:19.717Z,101135.69
2023-05-19T18:05:50.550Z,101134.25
2023-05-19T18:08:19.660Z,101131.25
2023-05-19T18:10:49.079Z,101137.38
2023-05-19T18:13:17.369Z,101127.25
2023-05-19T18:15:46.065Z,101140.56
2023-05-19T18:18:14.413Z,101139.69
2023-05-19T18:20:45.306Z,101155.53
2023-05-19T18:23:13.868Z,101155.25
2023-05-19T18:25:42.169Z,101141.63
2023-05-19T18:28:10.696Z,101147.41
2023-05-19T18:30:39.902Z,101149.34
2023-05-19T18:33:08.703Z,101163.34
2023-05-19T18:35:37.530Z,101165.37
2023-05-19T18:38:06.220Z,101166.56
2023-05-19T18:40:35.321Z,101170.13
2023-05-19T18:43:03.625Z,101166.31
2023-05-19T18:45:32.296Z,101173.38
2023-05-19T18:48:00.624Z,101175.09
2023-05-19T18:50:29.083Z,101173.53
2023-05-19T18:52:57.706Z,101155.87
2023-05-19T18:55:26.060Z,101163.44
2023-05-19T18:57:54.869Z,101158.03
2023-05-19T19:00:23.572Z,101176.16
2023-05-19T19:02:51.805Z,101182.34
2023-05-19T19:05:21.795Z,101174.09
2023-05-19T19:08:00.291Z,101175.78
2023-05-19T19:10:29.291Z,101174.28
2023-05-19T19:12:58.504Z,101181.34
2023-05-19T19:15:29.222Z,101177.84
2023-05-19T19:17:57.806Z,101182.72
2023-05-19T19:20:42.231Z,101179.16
2023-05-19T19:23:10.585Z,101182.87
2023-05-19T19:25:39.243Z,101187.59
2023-05-19T19:28:07.875Z,101177.09
2023-05-19T19:30:36.454Z,101182.72
2023-05-19T19:33:06.664Z,101191.97
2023-05-19T19:35:35.444Z,101192.19
2023-05-19T19:38:03.655Z,101189.87
2023-05-19T19:40:33.177Z,101189.47
2023-05-19T19:43:02.125Z,101191.28
2023-05-19T19:45:31.068Z,101190.06
2023-05-19T19:47:59.866Z,101186.09
2023-05-19T19:50:28.396Z,101192.03
2023-05-19T19:52:56.785Z,101200.03
2023-05-19T19:55:25.543Z,101206.78
2023-05-19T19:58:09.010Z,101209.16
2023-05-19T20:00:39.221Z,101206.41
2023-05-19T20:03:08.366Z,101206.41
2023-05-19T20:05:38.479Z,101211.06
2023-05-19T20:08:20.457Z,101213.19
2023-05-19T20:10:48.994Z,101216.19
2023-05-19T20:13:17.940Z,101221.66
2023-05-19T20:15:47.036Z,101222.03
2023-05-19T20:18:16.239Z,101224.47
2023-05-19T20:20:44.558Z,101220.34
2023-05-19T20:23:13.700Z,101215.75
2023-05-19T20:25:54.453Z,101214.13
2023-05-19T20:28:32.088Z,101211.78
2023-05-19T20:31:01.018Z,101226.34
2023-05-19T20:33:29.341Z,101232.16
2023-05-19T20:35:57.400Z,101227.06
2023-05-19T20:38:26.119Z,101235.16
2023-05-19T20:40:55.364Z,101236.44
2023-05-19T20:43:23.492Z,101233.09
2023-05-19T20:45:52.031Z,101240.59
2023-05-19T20:48:20.220Z,101242.81
2023-05-19T20:50:48.419Z,101254.25
2023-05-19T20:53:21.877Z,101245.34
2023-05-19T20:55:50.051Z,101251.97
2023-05-19T20:58:18.592Z,101253.84
2023-05-19T21:00:46.644Z,101253.00
2023-05-19T21:03:14.810Z,101253.69
2023-05-19T21:05:43.456Z,101257.22
2023-05-19T21:08:13.113Z,101260.47
2023-05-19T21:10:41.351Z,101266.84
2023-05-19T21:13:09.849Z,101266.28
2023-05-19T21:15:37.980Z,101261.69
2023-05-19T21:18:07.292Z,101241.50
2023-05-19T21:20:36.139Z,101257.00
2023-05-19T21:23:04.597Z,101256.94
2023-05-19T21:25:32.552Z,101256.41
2023-05-19T21:28:00.869Z,101261.84
2023-05-19T21:30:28.885Z,101262.66
2023-05-19T21:35:42.909Z,101255.66
2023-05-19T21:38:22.746Z,101267.69
2023-05-19T21:40:53.356Z,101263.44
2023-05-19T21:43:22.176Z,101263.16
2023-05-19T21:45:50.257Z,101261.22
2023-05-19T21:48:18.939Z,101258.47
2023-05-19T21:50:46.866Z,101250.47
2023-05-19T21:53:14.832Z,101255.81
2023-05-19T21:55:44.049Z,101257.53
2023-05-19T21:58:12.325Z,101263.94
2023-05-19T22:00:40.889Z,101273.03
2023-05-19T22:03:09.395Z,101275.28
2023-05-19T22:05:38.516Z,101275.28
2023-05-19T22:08:06.520Z,101274.69
2023-05-19T22:10:35.796Z,101274.91
2023-05-19T22:13:03.904Z,101279.19
2023-05-19T22:15:31.955Z,101283.31
2023-05-19T22:18:00.250Z,101288.84
2023-05-19T22:20:28.309Z,101287.59
2023-05-19T22:22:57.746Z,101281.34
2023-05-19T22:25:26.245Z,101284.50
2023-05-19T22:27:54.593Z,101286.97
2023-05-19T22:30:22.859Z,101291.97
2023-05-19T22:32:51.213Z,101294.91
2023-05-19T22:35:19.465Z,101290.84
2023-05-19T22:37:47.395Z,101276.66
2023-05-19T22:40:15.857Z,101297.31
2023-05-19T22:42:43.771Z,101291.34
2023-05-19T22:45:12.057Z,101304.50
2023-05-19T22:47:40.852Z,101297.84
2023-05-19T22:50:12.722Z,101293.22
2023-05-19T22:52:41.557Z,101294.00
2023-05-19T22:55:10.093Z,101293.25
2023-05-19T22:57:38.200Z,101285.13
2023-05-19T23:00:07.374Z,101289.47
2023-05-19T23:02:35.352Z,101288.84
2023-05-19T23:05:03.224Z,101290.41
2023-05-19T23:07:32.330Z,101291.03
2023-05-19T23:10:00.269Z,101289.53
2023-05-19T23:12:28.202Z,101291.94
2023-05-19T23:14:56.534Z,101283.50
2023-05-19T23:17:24.533Z,101282.19
2023-05-19T23:19:52.615Z,101289.50
2023-05-19T23:22:21.071Z,101282.44
2023-05-19T23:24:49.137Z,101278.91
2023-05-19T23:27:17.164Z,101278.53
2023-05-19T23:29:51.846Z,101274.37
2023-05-19T23:32:19.919Z,101270.34
2023-05-19T23:34:49.127Z,101279.41
2023-05-19T23:37:17.282Z,101277.59
2023-05-19T23:39:45.370Z,101271.94
2023-05-19T23:42:13.778Z,101267.87
2023-05-19T23:44:41.829Z,101270.13
2023-05-19T23:47:10.041Z,101265.88
2023-05-19T23:49:38.539Z,101264.50
2023-05-19T23:52:06.793Z,101266.44
2023-05-19T23:54:34.743Z,101267.34
2023-05-19T23:57:03.607Z,101266.69
2023-05-19T23:59:31.629Z,101262.59
